createdAt,value
2019-05-21T00:01:00.701Z,12.00
2019-05-21T00:05:56.282Z,12.00
2019-05-21T00:10:51.824Z,11.90
2019-05-21T00:15:47.366Z,11.90
2019-05-21T00:20:42.911Z,11.90
2019-05-21T00:25:38.519Z,11.80
2019-05-21T00:31:09.760Z,11.80
2019-05-21T00:37:04.947Z,11.80
2019-05-21T00:42:01.118Z,11.80
2019-05-21T00:46:56.711Z,11.70
2019-05-21T00:52:06.551Z,11.70
2019-05-21T00:56:49.519Z,11.70
2019-05-21T01:02:06.834Z,11.70
2019-05-21T01:07:02.601Z,11.70
2019-05-21T01:11:58.322Z,11.60
2019-05-21T01:16:54.015Z,11.60
2019-05-21T01:21:50.203Z,11.50
2019-05-21T01:26:45.766Z,11.50
2019-05-21T01:31:41.303Z,11.40
2019-05-21T01:36:40.985Z,11.40
2019-05-21T01:41:36.599Z,11.40
2019-05-21T01:46:32.154Z,11.30
2019-05-21T01:51:27.710Z,11.40
2019-05-21T01:56:23.294Z,11.50
2019-05-21T02:01:18.857Z,11.40
2019-05-21T02:06:14.383Z,11.40
2019-05-21T02:11:09.986Z,11.40
2019-05-21T02:16:07.092Z,11.30
2019-05-21T02:21:02.659Z,11.30
2019-05-21T02:25:58.295Z,11.40
2019-05-21T02:30:56.659Z,11.50
2019-05-21T02:35:54.624Z,11.50
2019-05-21T02:40:49.425Z,11.60
2019-05-21T02:45:45.023Z,11.50
2019-05-21T02:50:40.650Z,11.60
2019-05-21T02:55:36.499Z,11.50
2019-05-21T03:00:57.045Z,11.40
2019-05-21T03:05:52.579Z,11.40
2019-05-21T03:10:48.106Z,11.40
2019-05-21T03:15:43.671Z,11.40
2019-05-21T03:20:39.242Z,11.30
2019-05-21T03:25:34.826Z,11.40
2019-05-21T03:30:30.377Z,11.30
2019-05-21T03:35:25.940Z,11.30
2019-05-21T03:40:21.476Z,11.30
2019-05-21T03:45:17.240Z,11.30
2019-05-21T03:50:12.807Z,11.40
2019-05-21T03:55:08.581Z,11.50
2019-05-21T04:00:04.628Z,11.50
2019-05-21T04:05:00.330Z,11.60
2019-05-21T04:09:55.860Z,11.70
2019-05-21T04:14:55.978Z,11.80
2019-05-21T04:19:51.726Z,11.90
2019-05-21T04:24:47.231Z,12.00
2019-05-21T04:29:42.742Z,12.00
2019-05-21T04:34:38.267Z,11.90
2019-05-21T04:39:33.897Z,12.00
2019-05-21T04:44:29.343Z,12.10
2019-05-21T04:49:26.514Z,12.20
2019-05-21T04:54:22.023Z,12.30
2019-05-21T04:59:17.559Z,12.40
2019-05-21T05:04:14.150Z,12.60
2019-05-21T05:09:09.750Z,13.00
2019-05-21T05:14:05.407Z,13.30
2019-05-21T05:19:00.974Z,13.50
2019-05-21T05:23:56.510Z,13.60
2019-05-21T05:28:52.082Z,13.70
2019-05-21T05:33:47.662Z,13.80
2019-05-21T05:38:43.288Z,13.90
2019-05-21T05:43:38.950Z,14.00
2019-05-21T05:48:36.684Z,14.00
2019-05-21T05:53:33.824Z,13.80
2019-05-21T05:58:29.331Z,13.80
2019-05-21T06:03:25.066Z,13.70
2019-05-21T06:08:20.651Z,13.50
2019-05-21T06:13:16.438Z,13.50
2019-05-21T06:18:12.056Z,13.60
2019-05-21T06:23:08.920Z,13.80
2019-05-21T06:28:04.542Z,13.90
2019-05-21T06:33:01.572Z,14.10
2019-05-21T06:37:57.165Z,14.40
2019-05-21T06:42:52.769Z,14.60
2019-05-21T06:47:48.446Z,14.70
2019-05-21T06:52:43.997Z,14.80
2019-05-21T06:57:39.594Z,14.90
2019-05-21T07:02:35.226Z,15.00
2019-05-21T07:07:31.724Z,15.10
2019-05-21T07:12:27.313Z,15.20
2019-05-21T07:17:22.934Z,15.30
2019-05-21T07:22:19.562Z,15.60
2019-05-21T07:27:15.118Z,15.90
2019-05-21T07:32:10.745Z,16.20
2019-05-21T07:37:06.640Z,16.30
2019-05-21T07:42:02.214Z,16.40
2019-05-21T07:46:57.819Z,16.40
2019-05-21T07:51:54.619Z,16.30
2019-05-21T07:56:50.086Z,16.20
2019-05-21T08:01:45.728Z,16.30
2019-05-21T08:06:41.353Z,16.50
2019-05-21T08:11:36.973Z,16.60
2019-05-21T08:16:32.495Z,16.90
2019-05-21T08:21:28.026Z,17.40
2019-05-21T08:26:23.577Z,17.70
2019-05-21T08:31:19.086Z,17.80
2019-05-21T08:36:14.594Z,18.30
2019-05-21T08:41:10.135Z,18.40
2019-05-21T08:46:05.856Z,18.30
2019-05-21T08:51:01.599Z,18.10
2019-05-21T08:55:57.147Z,17.90
2019-05-21T09:00:52.706Z,17.70
2019-05-21T09:05:48.290Z,17.80
2019-05-21T09:10:44.909Z,17.90
2019-05-21T09:15:41.196Z,17.90
2019-05-21T09:20:36.866Z,17.80
2019-05-21T09:25:32.513Z,17.80
2019-05-21T09:30:28.164Z,17.90
2019-05-21T09:35:23.802Z,18.00
2019-05-21T09:40:22.119Z,18.00
2019-05-21T09:45:18.067Z,18.20
2019-05-21T09:50:13.966Z,18.40
2019-05-21T09:55:11.058Z,18.70
2019-05-21T10:00:13.968Z,19.60
2019-05-21T10:05:09.939Z,20.20
2019-05-21T10:10:06.460Z,20.40
2019-05-21T10:15:02.130Z,20.10
2019-05-21T10:19:59.133Z,19.80
2019-05-21T10:24:54.812Z,19.40
2019-05-21T10:29:50.438Z,19.20
2019-05-21T10:34:46.061Z,19.00
2019-05-21T10:39:41.627Z,18.80
2019-05-21T10:44:37.278Z,18.80
2019-05-21T10:49:32.879Z,18.80
2019-05-21T10:54:28.444Z,18.70
2019-05-21T10:59:24.137Z,18.60
2019-05-21T11:05:00.275Z,18.70
2019-05-21T11:09:55.953Z,18.60
2019-05-21T11:14:51.532Z,18.60
2019-05-21T11:19:47.259Z,18.50
2019-05-21T11:24:42.826Z,18.60
2019-05-21T11:29:38.945Z,18.60
2019-05-21T11:34:34.779Z,18.70
2019-05-21T11:39:31.370Z,18.80
2019-05-21T11:44:26.986Z,19.00
2019-05-21T11:49:22.551Z,19.00
2019-05-21T11:54:18.430Z,19.10
2019-05-21T11:59:14.260Z,19.30
2019-05-21T12:04:09.801Z,19.50
2019-05-21T12:09:07.834Z,19.70
2019-05-21T12:14:03.532Z,19.80
2019-05-21T12:18:59.812Z,19.90
2019-05-21T12:23:55.478Z,20.00
2019-05-21T12:28:51.810Z,19.90
2019-05-21T12:33:46.697Z,19.80
2019-05-21T12:38:40.518Z,19.80
2019-05-21T12:43:34.742Z,19.90
2019-05-21T12:48:30.895Z,19.90
2019-05-21T12:53:26.407Z,19.80
2019-05-21T12:58:21.966Z,19.70
2019-05-21T13:03:17.483Z,19.70
2019-05-21T13:08:13.562Z,19.60
2019-05-21T13:13:09.419Z,19.60
2019-05-21T13:18:05.680Z,19.60
2019-05-21T13:23:01.769Z,19.80
2019-05-21T13:27:57.813Z,19.80
2019-05-21T13:32:53.428Z,19.80
2019-05-21T13:37:48.947Z,19.70
2019-05-21T13:42:44.732Z,19.70
2019-05-21T13:47:40.346Z,19.70
2019-05-21T13:52:36.480Z,19.80
2019-05-21T13:57:32.070Z,19.70
2019-05-21T14:02:28.186Z,19.60
2019-05-21T14:07:24.369Z,19.60
2019-05-21T14:12:20.980Z,19.50
2019-05-21T14:17:17.293Z,19.30
2019-05-21T14:22:13.144Z,19.30
2019-05-21T14:27:09.328Z,19.10
2019-05-21T14:32:04.953Z,19.20
2019-05-21T14:37:00.950Z,19.20
2019-05-21T14:41:57.534Z,19.30
2019-05-21T14:46:53.905Z,19.40
2019-05-21T14:51:49.499Z,19.30
2019-05-21T14:56:47.390Z,19.20
2019-05-21T15:01:43.843Z,19.20
2019-05-21T15:06:40.489Z,19.10
2019-05-21T15:11:37.522Z,19.10
2019-05-21T15:16:33.834Z,19.10
2019-05-21T15:21:37.386Z,19.00
2019-05-21T15:26:33.316Z,18.90
2019-05-21T15:31:28.860Z,19.00
2019-05-21T15:36:25.508Z,19.00
2019-05-21T15:41:21.033Z,19.00
2019-05-21T15:46:16.610Z,18.90
2019-05-21T15:51:12.448Z,18.80
2019-05-21T15:56:08.447Z,18.70
2019-05-21T16:01:05.577Z,18.60
2019-05-21T16:06:01.823Z,18.40
2019-05-21T16:10:57.590Z,18.40
2019-05-21T16:15:54.339Z,18.40
2019-05-21T16:20:50.562Z,18.50
2019-05-21T16:25:46.184Z,18.50
2019-05-21T16:30:42.218Z,18.50
2019-05-21T16:35:38.331Z,18.50
2019-05-21T16:40:34.249Z,18.60
2019-05-21T16:45:29.803Z,18.50
2019-05-21T16:50:26.098Z,18.60
2019-05-21T16:55:22.748Z,18.60
2019-05-21T17:00:19.554Z,18.70
2019-05-21T17:05:15.802Z,18.90
2019-05-21T17:10:12.312Z,19.50
2019-05-21T17:15:09.442Z,19.20
2019-05-21T17:20:06.111Z,18.90
2019-05-21T17:25:01.977Z,18.70
2019-05-21T17:29:57.703Z,20.70
2019-05-21T17:34:53.331Z,19.70
2019-05-21T17:39:48.914Z,22.90
2019-05-21T17:44:44.555Z,26.30
2019-05-21T17:49:40.175Z,27.90
2019-05-21T17:54:35.775Z,25.00
2019-05-21T17:59:31.414Z,21.50
2019-05-21T18:04:28.777Z,19.60
2019-05-21T18:09:26.578Z,18.60
2019-05-21T18:14:22.371Z,18.20
2019-05-21T18:19:18.150Z,17.90
2019-05-21T18:24:14.020Z,17.70
2019-05-21T18:29:10.543Z,17.60
2019-05-21T18:34:06.407Z,17.40
2019-05-21T18:39:02.047Z,17.30
2019-05-21T18:43:59.223Z,17.20
2019-05-21T18:48:54.906Z,17.20
2019-05-21T18:53:50.564Z,17.10
2019-05-21T18:58:47.754Z,17.00
2019-05-21T19:03:43.715Z,16.90
2019-05-21T19:08:39.456Z,16.80
2019-05-21T19:13:35.145Z,16.80
2019-05-21T19:18:31.066Z,16.70
2019-05-21T19:23:26.674Z,16.60
2019-05-21T19:28:24.888Z,16.50
2019-05-21T19:33:20.950Z,16.50
2019-05-21T19:38:17.019Z,16.40
2019-05-21T19:43:16.304Z,16.40
2019-05-21T19:48:12.727Z,16.40
2019-05-21T19:53:08.636Z,16.30
2019-05-21T19:58:04.395Z,16.20
2019-05-21T20:03:00.102Z,16.10
2019-05-21T20:07:56.073Z,16.00
2019-05-21T20:12:52.097Z,15.90
2019-05-21T20:17:50.855Z,15.80
2019-05-21T20:22:45.468Z,15.70
2019-05-21T20:27:41.547Z,15.60
2019-05-21T20:37:53.586Z,15.50
2019-05-21T20:42:49.382Z,15.40
2019-05-21T20:47:46.114Z,15.30
2019-05-21T20:52:42.190Z,15.10
2019-05-21T20:57:37.925Z,14.90
2019-05-21T21:02:34.252Z,14.70
2019-05-21T21:07:30.357Z,14.60
2019-05-21T21:12:26.292Z,14.50
2019-05-21T21:17:21.898Z,14.40
2019-05-21T21:22:17.688Z,14.40
2019-05-21T21:27:14.087Z,14.30
2019-05-21T21:32:09.682Z,14.10
2019-05-21T21:37:06.347Z,14.00
2019-05-21T21:42:02.421Z,14.00
2019-05-21T21:46:58.024Z,13.90
2019-05-21T21:51:53.614Z,13.90
2019-05-21T21:57:19.842Z,13.90
2019-05-21T22:02:37.617Z,13.90
2019-05-21T22:07:33.248Z,13.90
2019-05-21T22:12:28.727Z,13.80
2019-05-21T22:17:24.619Z,13.70
2019-05-21T22:22:20.533Z,13.60
2019-05-21T22:27:16.189Z,13.60
2019-05-21T22:32:11.953Z,13.70
2019-05-21T22:37:09.147Z,13.70
2019-05-21T22:42:04.990Z,13.70
2019-05-21T22:47:00.703Z,13.70
2019-05-21T22:51:57.778Z,13.70
2019-05-21T22:56:53.358Z,13.70
2019-05-21T23:01:50.937Z,13.60
2019-05-21T23:06:46.628Z,13.50
2019-05-21T23:11:42.150Z,13.40
2019-05-21T23:16:37.838Z,13.30
2019-05-21T23:21:38.035Z,13.30
2019-05-21T23:26:34.267Z,13.30
2019-05-21T23:31:30.009Z,13.30
2019-05-21T23:36:26.314Z,13.30
2019-05-21T23:41:22.909Z,13.20
2019-05-21T23:46:18.774Z,13.10
2019-05-21T23:51:14.250Z,13.10
2019-05-21T23:56:09.946Z,13.10
